Terminal Aerodrome Forecast
Issued by NWS

Home | Current Version | Previous Version | Text Only | Print | Product List | Glossary Off
Versions: 1 2 3 4 5 6 7 8 9 10 11 12 13 14

323
FTUS43 KICT 240258 AAA
TAFCNU
TAF AMD
KCNU 240258Z 2403/2424 33009KT 6SM -TSRA BKN080CB
     FM240500 32022G26KT P6SM SCT020 BKN100
     FM240700 33022G26KT P6SM OVC017=

USA.gov is the U.S. government's official web portal to all federal, state and local government web resources and services.